Terminal Aerodrome Forecast
Issued by NWS Sterling, VA

Current Version | Previous Version | Text Only | Print | Product List | Glossary Off
Versions: 1 2 3 4 5 6 7 8 9 10 11 12 13 14 15 16 17 18 19 20 21 22 23 24 25

000
FTUS41 KLWX 261746
TAFDCA
TAF
KDCA 261746Z 2618/2718 20010G20KT P6SM BKN025
     FM262000 21015G25KT P6SM SCT050 SCT250
     FM270000 25008KT 3SM SHRA SCT008 OVC050
     FM270200 34015G25KT P6SM VCSH OVC050
     FM270400 34010G20KT 5SM -RA BKN015 OVC050
     FM271200 34008KT 5SM -RA BKN015 OVC050
     FM271600 34010G18KT P6SM BKN025=

USA.gov is the U.S. government's official web portal to all federal, state and local government web resources and services.